Time;durP1;ratioP1;P1;durP2;ratioP2;P2;SDS_P1;SDS_P2;PMS_P1;PMS_P2;Temp;Humidity;BMP_temperature;BMP_pressure;BME280_temperature;BME280_humidity;BME280_pressure;Samples;Min_cycle;Max_cycle;Signal;HPM_P1;HPM_P2
2022/01/27 00:06:08;;;;;;;5.82;4.10;;;;;;;17.93;49.91;102626.91;4941256;29;20042;-78
2022/01/27 00:08:43;;;;;;;6.45;4.47;;;;;;;17.94;49.94;102626.03;4910955;29;20111;-79
2022/01/27 00:11:14;;;;;;;6.53;5.20;;;;;;;17.93;49.82;102619.09;4977761;28;20118;-79
2022/01/27 00:13:49;;;;;;;6.22;4.50;;;;;;;17.92;49.89;102618.22;5003931;28;20055;-79
2022/01/27 00:16:21;;;;;;;6.68;4.65;;;;;;;17.92;49.84;102609.50;5004214;28;20060;-79
2022/01/27 00:18:49;;;;;;;5.90;4.93;;;;;;;17.92;49.55;102609.50;5020982;28;20022;-79
2022/01/27 00:21:18;;;;;;;5.63;4.20;;;;;;;17.92;49.74;102613.00;5002876;28;20453;-79
2022/01/27 00:23:45;;;;;;;8.25;4.90;;;;;;;17.93;49.58;102613.88;5003989;28;20184;-79
2022/01/27 00:26:12;;;;;;;6.03;4.85;;;;;;;17.92;49.73;102607.78;5003342;28;20037;-79
2022/01/27 00:28:39;;;;;;;6.68;5.07;;;;;;;17.92;49.58;102606.91;5003962;28;20068;-78
2022/01/27 00:31:04;;;;;;;6.07;4.82;;;;;;;17.92;49.74;102617.31;5003727;28;20464;-78
2022/01/27 00:33:30;;;;;;;6.65;5.05;;;;;;;17.92;49.67;102612.09;4987551;28;20125;-79
2022/01/27 00:35:55;;;;;;;6.10;4.68;;;;;;;17.92;49.45;102612.09;4987253;28;20068;-79
2022/01/27 00:38:20;;;;;;;6.35;4.82;;;;;;;17.91;49.56;102613.84;4987869;28;20025;-78
2022/01/27 00:40:46;;;;;;;6.53;4.75;;;;;;;17.90;49.51;102591.25;4987931;28;20034;-79
2022/01/27 00:43:11;;;;;;;6.22;4.68;;;;;;;17.88;49.61;102579.94;5007433;28;20057;-79
2022/01/27 00:45:37;;;;;;;7.15;5.00;;;;;;;17.89;49.45;102577.34;4991161;28;20041;-79
2022/01/27 00:48:04;;;;;;;7.88;5.05;;;;;;;17.89;49.33;102582.56;4992306;28;20097;-79
2022/01/27 00:50:33;;;;;;;6.05;5.05;;;;;;;17.88;49.38;102556.50;4990802;28;20026;-79
2022/01/27 00:53:01;;;;;;;6.63;5.03;;;;;;;17.89;49.31;102558.25;5024228;28;20026;-79
2022/01/27 00:55:29;;;;;;;6.45;4.72;;;;;;;17.88;49.37;102551.28;5022456;28;20057;-78
2022/01/27 01:00:34;;;;;;;6.55;5.10;;;;;;;17.87;49.33;102545.19;5023230;28;20034;-79
2022/01/27 01:03:07;;;;;;;5.90;4.72;;;;;;;17.87;49.31;102547.78;5005575;28;20041;-79
2022/01/27 01:06:00;;;;;;;;;;;;;;;17.86;49.29;102525.22;5007031;28;20034;-79
2022/01/27 01:19:30;;;;;;;7.30;5.45;;;;;;;17.85;49.07;102526.06;5004225;28;19913;-79
2022/01/27 01:30:06;;;;;;;9.57;5.68;;;;;;;17.83;49.17;102483.50;5024213;28;20025;-79
2022/01/27 01:32:46;;;;;;;8.45;5.28;;;;;;;17.83;48.90;102480.91;4990230;28;20034;-78
2022/01/27 01:35:11;;;;;;;6.95;5.38;;;;;;;17.83;48.83;102483.50;4991276;28;20036;-78
2022/01/27 01:37:40;;;;;;;8.20;5.85;;;;;;;17.82;48.65;102492.16;5021680;28;20471;-78
2022/01/27 01:40:07;;;;;;;6.40;5.18;;;;;;;17.82;48.97;102489.56;5004640;28;20045;-78
2022/01/27 01:42:33;;;;;;;7.60;5.65;;;;;;;17.81;48.83;102494.69;5003163;28;20092;-78
2022/01/27 01:45:08;;;;;;;7.30;5.57;;;;;;;17.81;48.96;102508.63;5003051;28;20415;-78
2022/01/27 01:47:33;;;;;;;5.90;4.72;;;;;;;17.82;48.67;102501.72;5002041;28;20061;-78
2022/01/27 01:49:59;;;;;;;5.93;5.20;;;;;;;17.80;48.96;102506.84;5002105;28;20029;-78
2022/01/27 01:52:25;;;;;;;6.78;5.30;;;;;;;17.80;48.84;102505.97;5002679;28;20483;-78
2022/01/27 01:54:51;;;;;;;6.45;5.43;;;;;;;17.80;48.83;102504.25;4985671;28;20033;-78
2022/01/27 01:57:16;;;;;;;7.68;5.75;;;;;;;17.80;48.93;102506.84;5019290;28;20049;-78
2022/01/27 01:59:42;;;;;;;7.20;5.70;;;;;;;17.80;48.86;102506.84;4986450;28;20369;-78
2022/01/27 02:02:12;;;;;;;6.88;5.55;;;;;;;17.81;49.14;102531.16;4985705;28;20076;-78
2022/01/27 02:04:37;;;;;;;8.30;5.78;;;;;;;17.79;48.89;102528.53;4986309;28;20030;-78
2022/01/27 02:07:09;;;;;;;6.18;4.82;;;;;;;17.79;48.90;102515.53;4985938;28;20387;-78
2022/01/27 02:18:01;;;;;;;7.57;5.88;;;;;;;17.78;48.79;102497.25;4990466;28;20040;-78
2022/01/27 02:20:28;;;;;;;7.18;5.30;;;;;;;17.79;48.80;102505.13;5018932;28;20427;-78
2022/01/27 02:22:53;;;;;;;6.82;5.40;;;;;;;17.78;48.82;102503.34;5001270;28;20487;-78
2022/01/27 02:25:19;;;;;;;9.93;6.13;;;;;;;17.79;48.73;102501.59;5000757;28;20048;-78
2022/01/27 02:27:45;;;;;;;7.20;5.45;;;;;;;17.78;48.83;102486.84;4984229;28;20026;-79
2022/01/27 02:30:11;;;;;;;6.53;5.65;;;;;;;17.77;48.67;102485.97;5000253;28;20033;-78
2022/01/27 02:32:36;;;;;;;8.95;5.70;;;;;;;17.78;48.74;102485.13;5000602;28;20026;-78
2022/01/27 02:35:04;;;;;;;7.28;5.55;;;;;;;17.78;48.74;102473.81;4984431;28;20026;-78
2022/01/27 02:37:30;;;;;;;8.50;5.80;;;;;;;17.78;48.60;102472.09;5000530;28;20432;-79
2022/01/27 02:39:55;;;;;;;7.32;5.63;;;;;;;17.78;48.77;102471.22;4999745;28;20026;-78
2022/01/27 02:42:26;;;;;;;7.28;5.97;;;;;;;17.77;48.61;102466.84;5017383;28;20096;-78
2022/01/27 02:44:54;;;;;;;9.07;5.43;;;;;;;17.77;48.39;102461.66;4999986;28;20109;-79
2022/01/27 02:47:22;;;;;;;6.68;5.50;;;;;;;17.77;48.70;102456.44;4999959;28;20545;-78
2022/01/27 02:49:47;;;;;;;8.68;6.20;;;;;;;17.76;48.55;102442.53;5018267;28;20036;-78
2022/01/27 02:52:13;;;;;;;8.15;5.32;;;;;;;17.75;48.84;102425.19;5000646;28;20033;-78
2022/01/27 02:54:39;;;;;;;6.88;5.10;;;;;;;17.76;48.79;102420.84;4984192;28;20033;-80
2022/01/27 02:57:04;;;;;;;6.25;5.28;;;;;;;17.77;48.60;102423.50;5001196;28;20053;-79
2022/01/27 02:59:30;;;;;;;7.63;5.65;;;;;;;17.77;48.71;102436.50;4990619;28;20042;-78
2022/01/27 03:01:56;;;;;;;6.70;5.10;;;;;;;17.76;48.60;102428.66;5024014;28;20054;-79
2022/01/27 03:04:23;;;;;;;7.97;5.65;;;;;;;17.75;48.56;102416.50;4989587;28;20033;-79
2022/01/27 03:06:50;;;;;;;7.72;5.60;;;;;;;17.75;48.82;102413.91;5003186;28;20052;-79
2022/01/27 03:09:15;;;;;;;7.43;5.82;;;;;;;17.74;48.75;102407.81;5003136;28;20045;-78
2022/01/27 03:12:11;;;;;;;7.63;5.40;;;;;;;17.75;48.75;102403.50;5003876;28;20030;-79
2022/01/27 03:14:37;;;;;;;8.75;5.78;;;;;;;17.73;48.68;102398.25;5002852;28;20036;-78
2022/01/27 03:17:05;;;;;;;9.20;5.80;;;;;;;17.75;48.61;102411.31;5002476;28;20049;-78
2022/01/27 03:19:31;;;;;;;8.20;5.60;;;;;;;17.74;48.69;102399.13;5002618;28;20053;-78
2022/01/27 03:21:56;;;;;;;6.85;5.03;;;;;;;17.74;48.63;102402.59;4986550;28;20030;-78
2022/01/27 03:24:23;;;;;;;7.38;5.68;;;;;;;17.74;48.62;102397.38;5002268;28;20132;-78
2022/01/27 03:26:49;;;;;;;6.43;5.40;;;;;;;17.74;48.60;102386.09;5003719;28;20034;-78
2022/01/27 03:29:17;;;;;;;8.07;5.30;;;;;;;17.73;48.75;102380.03;5003170;28;20365;-79
2022/01/27 03:31:43;;;;;;;5.88;5.15;;;;;;;17.74;48.70;102373.09;5001942;28;20109;-79
2022/01/27 03:34:09;;;;;;;6.25;5.18;;;;;;;17.72;48.47;102367.84;4986459;28;20112;-78
2022/01/27 03:36:34;;;;;;;7.38;5.63;;;;;;;17.74;48.78;102370.47;4987045;28;20080;-79
2022/01/27 03:39:00;;;;;;;6.75;5.10;;;;;;;17.74;48.84;102368.75;4990585;28;20056;-79
2022/01/27 03:41:31;;;;;;;7.30;5.53;;;;;;;17.73;48.57;102353.13;4993350;28;20030;-79
2022/01/27 03:43:56;;;;;;;6.55;5.55;;;;;;;17.72;48.49;102341.81;4994035;28;20067;-79
2022/01/27 03:46:22;;;;;;;8.15;5.70;;;;;;;17.73;48.66;102358.34;4990102;28;20089;-79
2022/01/27 03:48:47;;;;;;;7.05;4.97;;;;;;;17.73;48.56;102353.13;4972261;28;20037;-79
2022/01/27 03:51:12;;;;;;;7.85;5.50;;;;;;;17.72;48.47;102367.84;4971103;28;20075;-78
2022/01/27 03:53:38;;;;;;;7.35;5.28;;;;;;;17.73;48.50;102353.13;5004132;28;20038;-79
2022/01/27 03:56:04;;;;;;;9.30;5.68;;;;;;;17.71;48.75;102347.88;5003957;28;20053;-79
2022/01/27 03:58:29;;;;;;;8.88;5.78;;;;;;;17.71;48.62;102334.88;5003613;28;20030;-79
2022/01/27 04:00:54;;;;;;;8.45;5.32;;;;;;;17.71;48.58;102342.69;4986498;28;20033;-79
2022/01/27 04:03:22;;;;;;;7.38;5.35;;;;;;;17.72;48.85;102336.59;4986784;28;20025;-78
2022/01/27 04:05:53;;;;;;;7.70;5.13;;;;;;;17.70;48.67;102333.09;5001981;28;20072;-79
2022/01/27 04:08:20;;;;;;;6.70;5.57;;;;;;;17.70;48.59;102338.31;5019872;28;20494;-78
2022/01/27 04:10:45;;;;;;;7.00;5.65;;;;;;;17.71;48.63;102328.78;5002143;28;20033;-79
2022/01/27 04:13:11;;;;;;;7.20;5.35;;;;;;;17.69;48.42;102316.63;5002599;28;20416;-79
2022/01/27 04:15:40;;;;;;;6.47;4.68;;;;;;;17.70;48.49;102327.91;5002868;28;20535;-79
2022/01/27 04:18:06;;;;;;;7.10;5.50;;;;;;;17.70;48.29;102314.88;5020011;28;20034;-79
2022/01/27 04:20:31;;;;;;;8.25;4.93;;;;;;;17.70;48.46;102309.66;4986171;28;20026;-78
2022/01/27 04:22:56;;;;;;;6.97;5.40;;;;;;;17.70;48.38;102325.28;5002494;28;20585;-79
2022/01/27 04:25:22;;;;;;;5.85;4.68;;;;;;;17.69;48.48;102318.34;5002662;28;20034;-78
2022/01/27 04:27:52;;;;;;;6.68;5.28;;;;;;;17.70;48.50;102317.47;5002050;28;20459;-78
2022/01/27 04:30:20;;;;;;;6.85;5.10;;;;;;;17.68;48.38;102308.78;4986353;28;20050;-78
2022/01/27 04:32:51;;;;;;;6.85;4.95;;;;;;;17.70;48.39;102317.47;5001321;28;20033;-78
2022/01/27 04:35:20;;;;;;;7.35;4.93;;;;;;;17.69;48.47;102316.63;5001028;28;20026;-78
2022/01/27 04:40:24;;;;;;;8.45;5.13;;;;;;;17.68;48.45;102298.34;5019121;28;20037;-78
2022/01/27 04:45:34;;;;;;;8.15;5.28;;;;;;;17.68;48.46;102298.34;5003410;28;20030;-78
2022/01/27 04:48:09;;;;;;;6.60;5.13;;;;;;;17.68;48.72;102300.97;5001522;28;20033;-78
2022/01/27 04:50:35;;;;;;;7.00;5.43;;;;;;;17.67;48.48;102302.69;5000569;28;20022;-79
2022/01/27 04:53:03;;;;;;;7.38;5.43;;;;;;;17.68;48.30;102316.59;4983965;28;20123;-79
2022/01/27 04:55:28;;;;;;;8.05;5.18;;;;;;;17.67;48.43;102302.69;5000677;28;20179;-78
2022/01/27 04:58:06;;;;;;;7.65;5.22;;;;;;;17.67;48.36;102297.50;4983899;28;20469;-78
2022/01/27 05:00:32;;;;;;;8.88;5.00;;;;;;;17.66;48.36;102298.34;4986101;28;20168;-79
2022/01/27 05:02:59;;;;;;;8.27;5.50;;;;;;;17.66;48.51;102290.56;4983597;28;20062;-79
2022/01/27 05:05:25;;;;;;;6.78;5.00;;;;;;;17.66;48.36;102303.56;5000033;28;20118;-79
2022/01/27 05:08:00;;;;;;;7.10;5.35;;;;;;;17.66;48.22;102292.28;5000240;28;20460;-79
2022/01/27 05:10:31;;;;;;;9.65;5.88;;;;;;;17.66;48.61;102295.75;5000379;28;20022;-79
2022/01/27 05:13:06;;;;;;;7.75;5.15;;;;;;;17.66;48.54;102292.28;5000629;28;20128;-78
2022/01/27 05:15:31;;;;;;;7.70;4.93;;;;;;;17.66;48.46;102297.50;5000287;28;20026;-79
2022/01/27 05:17:57;;;;;;;6.32;4.78;;;;;;;17.65;48.44;102286.19;4983477;28;20146;-79
2022/01/27 05:20:22;;;;;;;9.25;5.57;;;;;;;17.66;48.38;102279.28;4999248;28;20045;-79
2022/01/27 05:22:47;;;;;;;6.97;4.80;;;;;;;17.66;48.41;102287.94;4983435;28;20034;-79
2022/01/27 05:25:13;;;;;;;7.03;5.03;;;;;;;17.66;48.31;102292.28;4999440;28;20038;-79
2022/01/27 05:27:38;;;;;;;7.43;5.30;;;;;;;17.65;48.32;102282.72;4983534;28;20026;-79
2022/01/27 05:30:04;;;;;;;7.50;5.07;;;;;;;17.65;48.23;102286.19;4982968;28;20392;-79
2022/01/27 05:32:30;;;;;;;7.57;4.95;;;;;;;17.65;48.58;102285.31;5018312;28;20112;-81
2022/01/27 05:34:55;;;;;;;7.95;4.82;;;;;;;17.65;48.26;102275.75;4992218;28;20030;-82
2022/01/27 05:37:23;;;;;;;6.90;4.80;;;;;;;17.65;48.36;102261.88;5008472;28;20040;-83
2022/01/27 05:40:09;;;;;;;7.03;5.15;;;;;;;17.63;48.52;102258.38;4993612;28;20033;-85
2022/01/27 05:42:36;;;;;;;6.38;4.72;;;;;;;17.65;48.30;102256.69;4988430;28;20466;-81
2022/01/27 05:45:02;;;;;;;7.53;5.32;;;;;;;17.64;48.17;102254.94;5004634;28;20121;-81
2022/01/27 05:47:27;;;;;;;7.25;5.18;;;;;;;17.66;48.34;102261.03;5021647;28;20056;-82
2022/01/27 05:49:53;;;;;;;6.38;4.90;;;;;;;17.65;48.28;102257.53;4988180;28;20089;-81
2022/01/27 05:52:19;;;;;;;8.80;5.05;;;;;;;17.66;48.08;102263.66;5003885;28;20033;-82
2022/01/27 05:54:45;;;;;;;7.88;5.07;;;;;;;17.65;48.27;102259.28;5003439;28;20080;-82
2022/01/27 05:57:10;;;;;;;7.75;5.20;;;;;;;17.65;48.24;102257.53;5002547;28;20046;-80
2022/01/27 05:59:44;;;;;;;7.82;5.05;;;;;;;17.65;48.09;102247.13;5008489;28;20188;-81
2022/01/27 06:02:10;;;;;;;8.90;5.00;;;;;;;17.64;48.22;102252.34;4995321;28;20036;-80
2022/01/27 06:04:35;;;;;;;7.72;5.28;;;;;;;17.65;48.24;102246.25;5001525;28;20125;-80
2022/01/27 06:07:01;;;;;;;7.03;4.95;;;;;;;17.62;48.38;102241.91;5016938;28;20036;-79
2022/01/27 06:09:33;;;;;;;7.55;5.25;;;;;;;17.65;48.36;102235.84;5000025;28;20146;-79
2022/01/27 06:11:58;;;;;;;7.78;4.82;;;;;;;17.66;48.54;102237.63;5011729;28;20032;-81
2022/01/27 06:14:43;;;;;;;18.38;8.13;;;;;;;17.73;49.03;102235.97;5000898;28;20120;-83
2022/01/27 06:17:16;;;;;;;19.50;8.00;;;;;;;17.70;49.20;102234.16;5037975;28;20077;-81
2022/01/27 06:19:44;;;;;;;15.88;7.95;;;;;;;17.68;49.24;102238.47;5036260;28;20029;-81
2022/01/27 06:22:28;;;;;;;15.45;7.72;;;;;;;17.66;49.16;102227.19;5022627;28;20014;-83
2022/01/27 06:24:54;;;;;;;16.02;7.85;;;;;;;17.64;49.11;102234.97;5033393;28;20036;-81
2022/01/27 06:27:21;;;;;;;13.40;7.05;;;;;;;17.65;48.98;102234.13;5014014;28;20129;-81
2022/01/27 06:29:54;;;;;;;15.48;7.32;;;;;;;17.65;49.08;102243.66;5030632;28;20085;-82
2022/01/27 06:32:24;;;;;;;13.73;7.28;;;;;;;17.64;48.99;102247.13;5012681;28;20022;-83
2022/01/27 06:34:52;;;;;;;14.52;7.28;;;;;;;17.64;49.17;102248.00;5028999;28;20057;-82
2022/01/27 06:37:18;;;;;;;12.55;7.10;;;;;;;17.62;49.09;102247.09;5011962;28;20041;-81
2022/01/27 06:39:43;;;;;;;13.35;7.35;;;;;;;17.63;49.17;102250.56;5028960;28;20025;-81
2022/01/27 06:42:12;;;;;;;14.20;6.32;;;;;;;17.63;49.06;102246.22;5027298;28;20034;-82
2022/01/27 06:44:38;;;;;;;12.82;6.95;;;;;;;17.61;49.04;102240.13;5009652;28;20041;-81
2022/01/27 06:47:04;;;;;;;11.43;5.90;;;;;;;17.62;49.18;102251.44;4993441;28;20030;-81
2022/01/27 06:49:31;;;;;;;10.20;6.00;;;;;;;17.61;49.21;102245.34;5026869;28;20018;-81
2022/01/27 06:51:58;;;;;;;12.10;6.50;;;;;;;17.63;49.22;102246.22;5009634;28;20117;-81
2022/01/27 06:54:25;;;;;;;11.13;6.50;;;;;;;17.63;49.22;102240.16;5026269;28;20032;-81
2022/01/27 06:56:52;;;;;;;10.38;6.13;;;;;;;17.62;49.11;102238.44;5001161;28;20048;-82
2022/01/27 06:59:18;;;;;;;9.18;5.30;;;;;;;17.63;49.14;102246.22;4971604;28;20061;-81
2022/01/27 07:01:45;;;;;;;13.13;5.97;;;;;;;17.63;49.01;102247.97;4972680;28;20030;-81
2022/01/27 07:04:18;;;;;;;11.65;5.78;;;;;;;17.63;49.26;102259.25;4988788;28;20053;-82
2022/01/27 07:06:44;;;;;;;12.07;6.05;;;;;;;17.62;49.35;102256.66;4976115;28;20050;-82
2022/01/27 07:09:11;;;;;;;10.63;5.35;;;;;;;17.63;49.23;102261.00;4971448;28;20034;-82
2022/01/27 07:11:38;;;;;;;8.55;5.45;;;;;;;17.63;49.34;102253.19;5007323;28;20168;-81
2022/01/27 07:14:04;;;;;;;8.73;5.35;;;;;;;17.61;49.32;102244.47;5003667;28;20030;-82
2022/01/27 07:16:31;;;;;;;9.98;5.80;;;;;;;17.63;49.09;102258.38;5001073;28;20040;-82
2022/01/27 07:18:56;;;;;;;9.05;5.40;;;;;;;17.61;49.31;102250.53;4981252;28;20109;-82
2022/01/27 07:21:25;;;;;;;10.13;5.43;;;;;;;17.62;49.29;102256.66;4982187;28;20073;-81
2022/01/27 07:23:52;;;;;;;9.13;4.95;;;;;;;17.62;49.18;102257.53;4986296;28;20022;-82
2022/01/27 07:26:25;;;;;;;9.70;5.13;;;;;;;17.64;49.37;102260.16;4974498;28;20069;-82
2022/01/27 07:28:54;;;;;;;9.63;5.60;;;;;;;17.63;49.45;102258.38;4992029;28;20062;-81
2022/01/27 07:31:58;;;;;;;10.05;5.18;;;;;;;17.63;49.47;102253.19;4980674;28;20077;-84
2022/01/27 07:34:24;;;;;;;8.90;4.82;;;;;;;17.63;49.29;102259.25;4995772;28;20025;-81
2022/01/27 07:40:20;;;;;;;9.13;4.90;;;;;;;17.83;49.33;102272.59;5018214;28;20038;-85
2022/01/27 07:43:30;;;;;;;8.63;5.40;;;;;;;17.87;49.33;102269.13;5017170;28;20022;-83
2022/01/27 07:46:29;;;;;;;8.10;5.13;;;;;;;17.89;49.46;102274.38;4923949;28;20144;-82
2022/01/27 07:49:39;;;;;;;9.00;5.35;;;;;;;17.95;49.38;102270.97;4954096;29;20043;-83
2022/01/27 07:55:34;;;;;;;8.38;5.15;;;;;;;17.95;49.41;102260.56;4953671;29;20047;-83
2022/01/27 07:58:25;;;;;;;10.13;5.20;;;;;;;17.95;49.39;102268.38;4966812;29;20111;-83
2022/01/27 08:01:16;;;;;;;9.30;5.20;;;;;;;17.95;49.27;102274.44;4960852;29;20529;-83
2022/01/27 08:03:43;;;;;;;9.10;5.00;;;;;;;17.96;49.29;102276.19;4954656;29;20102;-82
2022/01/27 08:06:16;;;;;;;9.93;4.75;;;;;;;17.97;49.30;102279.69;4936390;29;20046;-82
2022/01/27 08:08:43;;;;;;;10.65;5.05;;;;;;;17.97;49.14;102275.34;4967291;29;20038;-82
2022/01/27 08:11:48;;;;;;;8.23;4.57;;;;;;;17.99;49.34;102277.97;4952827;29;20039;-83
2022/01/27 08:14:13;;;;;;;10.15;5.10;;;;;;;18.00;49.04;102270.16;4966143;29;20031;-80
2022/01/27 08:16:40;;;;;;;7.55;4.47;;;;;;;18.00;49.22;102277.09;4944169;29;20536;-80
2022/01/27 08:19:06;;;;;;;7.82;4.75;;;;;;;18.00;49.28;102275.34;4935241;28;20049;-79
2022/01/27 08:21:32;;;;;;;10.68;4.70;;;;;;;18.02;49.12;102265.84;4982728;28;20031;-80
2022/01/27 08:23:59;;;;;;;6.57;4.28;;;;;;;18.02;49.26;102276.25;5001052;28;20081;-80
2022/01/27 08:29:10;;;;;;;6.75;4.35;;;;;;;18.02;49.09;102262.38;5000173;28;20026;-80
2022/01/27 08:31:55;;;;;;;8.15;4.65;;;;;;;18.03;49.44;102266.69;4953990;28;20109;-80
2022/01/27 08:34:36;;;;;;;6.72;4.28;;;;;;;18.03;49.23;102266.69;4983224;28;20037;-80
2022/01/27 08:37:07;;;;;;;8.70;4.97;;;;;;;18.04;49.25;102268.47;4997678;28;20022;-80
2022/01/27 08:39:33;;;;;;;8.38;4.00;;;;;;;18.04;49.18;102269.34;4980711;28;20072;-80
2022/01/27 08:42:01;;;;;;;7.10;3.95;;;;;;;18.04;49.09;102266.72;4965380;28;20073;-80
2022/01/27 08:44:26;;;;;;;6.72;4.28;;;;;;;18.04;49.04;102269.34;4949999;28;20031;-80
2022/01/27 08:46:52;;;;;;;6.82;4.50;;;;;;;18.02;49.25;102258.03;4993932;28;20112;-80
2022/01/27 08:49:20;;;;;;;6.75;4.00;;;;;;;18.01;49.13;102255.41;4965647;28;20038;-81
2022/01/27 08:51:45;;;;;;;6.10;4.20;;;;;;;18.02;49.18;102258.03;4994054;28;20099;-80
2022/01/27 08:54:11;;;;;;;6.00;4.28;;;;;;;18.01;49.22;102263.25;4957834;28;20476;-80
2022/01/27 08:56:37;;;;;;;6.20;4.10;;;;;;;18.02;49.12;102257.16;4970056;28;20054;-80
2022/01/27 08:59:03;;;;;;;6.93;4.30;;;;;;;18.03;49.20;102253.69;4988786;28;20073;-82
2022/01/27 09:01:28;;;;;;;6.10;3.95;;;;;;;18.02;49.25;102262.38;4991342;28;20022;-82
2022/01/27 09:03:54;;;;;;;6.75;4.38;;;;;;;18.02;49.18;102260.63;4959135;28;20057;-82
2022/01/27 09:06:20;;;;;;;6.47;4.35;;;;;;;18.02;49.10;102254.56;4975056;28;20054;-82
2022/01/27 09:08:46;;;;;;;6.82;4.18;;;;;;;18.03;48.99;102259.78;4992783;28;20109;-82
2022/01/27 09:11:12;;;;;;;7.00;4.63;;;;;;;18.04;48.99;102258.03;4975858;28;20030;-82
2022/01/27 09:13:38;;;;;;;6.88;4.43;;;;;;;18.04;49.28;102263.25;4976515;28;20030;-82
2022/01/27 09:16:07;;;;;;;5.88;4.15;;;;;;;18.00;49.14;102264.94;4991190;28;20030;-83
2022/01/27 09:18:33;;;;;;;7.10;4.45;;;;;;;17.99;49.30;102264.94;4990462;28;20089;-82
2022/01/27 09:21:01;;;;;;;7.95;4.38;;;;;;;17.98;49.43;102260.56;4991012;28;20034;-82
2022/01/27 09:23:27;;;;;;;6.68;4.10;;;;;;;17.97;49.20;102259.72;4974761;28;20023;-82
2022/01/27 09:25:56;;;;;;;6.50;4.30;;;;;;;17.96;49.13;102257.09;4990461;28;20028;-82
2022/01/27 09:28:22;;;;;;;6.63;4.55;;;;;;;17.97;49.17;102259.72;4973812;28;20030;-80
2022/01/27 09:30:47;;;;;;;7.07;4.32;;;;;;;17.97;49.26;102259.72;4982247;28;20035;-79
2022/01/27 09:33:13;;;;;;;7.20;4.15;;;;;;;17.97;49.06;102253.63;4965104;28;20034;-80
2022/01/27 09:35:39;;;;;;;4.85;3.55;;;;;;;17.96;49.60;102259.69;4965473;28;20113;-79
2022/01/27 09:38:05;;;;;;;5.15;3.78;;;;;;;17.96;49.00;102257.94;4968708;28;20041;-79
2022/01/27 09:40:33;;;;;;;7.43;4.60;;;;;;;17.97;48.88;102259.72;4991409;28;20042;-80
2022/01/27 09:43:00;;;;;;;6.10;4.00;;;;;;;17.97;49.29;102271.88;4965135;28;20033;-79
2022/01/27 09:45:30;;;;;;;7.32;4.28;;;;;;;17.96;49.23;102255.34;4974548;28;20117;-80
2022/01/27 09:48:02;;;;;;;6.43;4.18;;;;;;;17.96;49.13;102265.75;4996382;28;20045;-80
2022/01/27 09:53:10;;;;;;;7.53;3.90;;;;;;;17.98;49.01;102277.06;5007309;28;20113;-80
2022/01/27 09:55:36;;;;;;;7.47;4.07;;;;;;;17.97;49.16;102280.53;4990473;28;20117;-80
2022/01/27 09:58:03;;;;;;;6.78;4.05;;;;;;;17.98;49.00;102286.63;4979509;28;20065;-80
2022/01/27 10:00:29;;;;;;;6.38;4.15;;;;;;;17.99;48.90;102291.00;5005910;28;20090;-79
2022/01/27 10:03:13;;;;;;;6.78;3.95;;;;;;;18.00;48.96;102295.34;5006580;28;20053;-80
2022/01/27 10:05:39;;;;;;;5.53;3.58;;;;;;;18.00;49.02;102297.94;5004324;28;20022;-79
2022/01/27 10:08:12;;;;;;;5.60;3.90;;;;;;;18.01;48.76;102297.09;4986312;28;20026;-79
2022/01/27 10:10:41;;;;;;;6.82;4.07;;;;;;;18.01;48.91;102297.97;5003765;28;20026;-79
2022/01/27 10:13:09;;;;;;;7.93;4.20;;;;;;;18.03;48.78;102296.25;5004070;28;20029;-79
2022/01/27 10:15:41;;;;;;;6.65;3.65;;;;;;;18.02;49.04;102293.63;4988020;28;20066;-80
2022/01/27 10:18:14;;;;;;;4.80;3.47;;;;;;;17.99;49.10;102294.47;5006482;28;20033;-79
2022/01/27 10:20:43;;;;;;;6.30;4.07;;;;;;;17.99;49.00;102291.00;5003817;28;20472;-79
2022/01/27 10:23:15;;;;;;;7.20;4.05;;;;;;;17.99;48.69;102299.69;5004792;28;20030;-79
2022/01/27 10:25:49;;;;;;;6.40;3.42;;;;;;;18.01;49.11;102302.31;5004275;28;20392;-79
2022/01/27 10:29:32;;;;;;;5.90;3.78;;;;;;;18.00;48.90;102310.97;4989478;28;20041;-79
2022/01/27 10:31:24;;;;;;;5.05;3.67;;;;;;;17.99;48.85;102309.22;4991027;28;20038;-79
2022/01/27 10:33:59;;;;;;;7.63;3.97;;;;;;;18.01;48.86;102313.59;5002997;28;20440;-79
2022/01/27 10:36:26;;;;;;;4.90;3.65;;;;;;;18.01;48.46;102315.34;5003453;28;20030;-79
2022/01/27 10:39:05;;;;;;;7.15;3.70;;;;;;;17.99;48.81;102323.13;5001317;28;20034;-79
2022/01/27 10:41:33;;;;;;;6.57;3.67;;;;;;;17.98;49.11;102318.75;5004436;28;20037;-79
2022/01/27 10:44:06;;;;;;;5.95;3.45;;;;;;;17.96;48.99;102322.19;5004055;28;20130;-79
2022/01/27 10:46:32;;;;;;;5.00;3.50;;;;;;;17.96;49.03;102316.97;5004902;28;20092;-80
2022/01/27 10:49:02;;;;;;;6.72;4.00;;;;;;;17.97;48.93;102321.34;4971912;28;20037;-79
2022/01/27 10:51:38;;;;;;;7.50;3.55;;;;;;;17.97;49.10;102319.63;4973192;28;20030;-79
2022/01/27 10:54:06;;;;;;;5.90;3.65;;;;;;;17.98;49.05;102315.28;4990152;28;20094;-79
2022/01/27 10:56:34;;;;;;;7.15;3.70;;;;;;;17.99;48.90;102315.31;5006883;28;20113;-79
2022/01/27 10:59:09;;;;;;;7.40;3.65;;;;;;;17.97;48.91;102317.00;5002925;28;20073;-79
2022/01/27 11:01:40;;;;;;;6.55;3.70;;;;;;;17.97;49.07;102318.75;5004714;28;20031;-81
2022/01/27 11:04:08;;;;;;;6.03;3.58;;;;;;;17.96;49.21;102311.78;5007124;28;20037;-81
2022/01/27 11:06:35;;;;;;;6.57;3.50;;;;;;;17.95;48.91;102317.84;5006830;28;20023;-80
2022/01/27 11:09:09;;;;;;;5.35;3.67;;;;;;;17.95;48.90;102310.91;5004912;28;20041;-80
2022/01/27 11:11:45;;;;;;;5.93;3.38;;;;;;;17.95;48.94;102320.47;5006637;28;20014;-79
2022/01/27 11:14:10;;;;;;;5.45;3.50;;;;;;;17.94;49.09;102305.66;5006056;28;20022;-79
2022/01/27 11:16:39;;;;;;;7.43;3.72;;;;;;;17.95;49.22;102321.31;5007068;28;20090;-79
2022/01/27 11:21:40;;;;;;;4.93;3.28;;;;;;;17.94;49.01;102319.56;5011157;28;20567;-79
2022/01/27 11:24:15;;;;;;;4.95;3.30;;;;;;;17.95;49.04;102320.47;5012894;28;20094;-79
2022/01/27 11:26:43;;;;;;;5.40;3.38;;;;;;;17.97;48.74;102323.97;5013888;28;20071;-80
2022/01/27 11:29:10;;;;;;;6.35;3.83;;;;;;;18.00;48.90;102319.63;5012552;28;20030;-80
2022/01/27 11:31:52;;;;;;;6.15;3.22;;;;;;;18.04;48.72;102323.16;5013191;28;20086;-79
2022/01/27 11:34:18;;;;;;;5.18;3.50;;;;;;;18.03;48.73;102319.69;5011845;28;20149;-80
2022/01/27 11:37:04;;;;;;;5.03;3.33;;;;;;;18.03;48.74;102313.59;5012028;28;20034;-79
2022/01/27 11:39:53;;;;;;;5.40;3.60;;;;;;;18.01;48.63;102321.41;5011531;28;20023;-79
2022/01/27 11:42:34;;;;;;;4.47;2.95;;;;;;;18.02;48.94;102309.25;5006423;28;20030;-79
2022/01/27 11:45:19;;;;;;;6.07;3.05;;;;;;;18.01;48.75;102310.13;5002632;28;20045;-79
2022/01/27 11:47:51;;;;;;;4.68;3.28;;;;;;;18.01;48.99;102305.78;5001095;28;20029;-79
2022/01/27 11:50:38;;;;;;;7.30;3.45;;;;;;;18.00;49.00;102321.38;4999707;28;20062;-79
2022/01/27 11:53:05;;;;;;;5.70;3.03;;;;;;;18.02;49.01;102314.47;5000224;28;20116;-79
2022/01/27 11:55:33;;;;;;;5.45;3.35;;;;;;;18.04;48.70;102313.63;5002880;28;20018;-79
2022/01/27 11:58:13;;;;;;;6.18;3.50;;;;;;;18.09;48.37;102308.47;5004947;28;20050;-79
2022/01/27 12:00:39;;;;;;;4.35;2.78;;;;;;;18.13;48.51;102310.25;4987072;28;20034;-79
2022/01/27 12:03:15;;;;;;;4.25;2.72;;;;;;;18.14;48.47;102309.41;4985510;28;20033;-79
2022/01/27 12:05:51;;;;;;;4.55;2.95;;;;;;;18.13;48.63;102312.84;4955345;28;20038;-80
2022/01/27 12:08:36;;;;;;;6.15;3.50;;;;;;;18.09;48.61;102304.16;5003504;28;20034;-81
2022/01/27 12:11:06;;;;;;;5.13;2.97;;;;;;;18.09;48.46;102298.94;4971187;28;20068;-81
2022/01/27 12:19:17;;;;;;;3.95;2.70;;;;;;;18.15;48.83;102308.53;5001642;28;20431;-80
2022/01/27 12:21:54;;;;;;;4.03;2.45;;;;;;;18.18;48.91;102311.19;4982586;28;20023;-79
2022/01/27 12:24:24;;;;;;;4.32;2.85;;;;;;;18.23;48.55;102312.09;4983696;28;20059;-79
2022/01/27 12:27:04;;;;;;;5.00;2.78;;;;;;;18.26;48.73;102303.44;4984835;28;20026;-79
2022/01/27 12:29:40;;;;;;;4.60;2.90;;;;;;;18.28;48.59;102307.81;4983423;28;20031;-79
2022/01/27 12:32:30;;;;;;;4.68;2.58;;;;;;;18.30;48.60;102300.03;4982195;28;20029;-80
2022/01/27 12:35:07;;;;;;;5.45;3.10;;;;;;;18.34;48.56;102308.75;4985552;28;20034;-80
2022/01/27 12:37:39;;;;;;;3.90;2.70;;;;;;;18.34;48.43;102313.97;4982067;28;20056;-80